Airport, Ohio
Current Conditions -  °F | °C
As of 7:52 AM on Sunday 23 Nov 2014 (Local Time) from KCVG Reporting Station
Overcast Overcast  
Wind Chill: 11°   Ceiling: 3500
Heat Index: 11°   Visibility: 10mi
Dew Point:   Wind: 9mph
Humidity: 63%   Direction: 180°S
Pressure: 29.99"   Gusts: NA
Location:  39.0588°N, 84.6513°W
Report Text: KCVG 231252Z 18008KT 10SM BKN035 OVC055 11/04 A2999 RMK AO2 SLP152 T01110044
Loading
Personal Weather Stations






























Interactive Weather Map New forecast layout! Learn more

10-Day Weather Forecast

Advertisements
Track Severe Weather on mobile